createdAt,value
2022-11-28T00:01:19.654Z,8.9
2022-11-28T00:03:19.530Z,6.5
2022-11-28T00:05:22.649Z,8.1
2022-11-28T00:07:22.448Z,7.6
2022-11-28T00:09:22.266Z,7.1
2022-11-28T00:11:22.098Z,14.1
2022-11-28T00:17:21.615Z,6.3
2022-11-28T00:19:24.969Z,10.5
2022-11-28T00:21:24.805Z,17.9
2022-11-28T00:23:24.540Z,5.7
2022-11-28T00:31:24.003Z,7.2
2022-11-28T00:33:27.140Z,9.9
2022-11-28T00:35:26.982Z,12.9
2022-11-28T00:37:26.812Z,8.7
2022-11-28T00:39:26.659Z,9.5
2022-11-28T00:41:26.504Z,12.1
2022-11-28T00:43:26.345Z,7.1
2022-11-28T00:45:26.227Z,15.3
2022-11-28T00:47:29.512Z,9.3
2022-11-28T00:49:29.346Z,7.3
2022-11-28T00:51:29.135Z,8.3
2022-11-28T00:52:30.759Z,7.8
2022-11-28T00:54:30.587Z,4.4
2022-11-28T00:56:30.331Z,7.7
2022-11-28T00:58:30.159Z,6.9
2022-11-28T01:00:33.381Z,9.7
2022-11-28T01:06:32.806Z,11.5
2022-11-28T01:10:32.421Z,7.4
2022-11-28T01:14:35.557Z,7.9
2022-11-28T01:16:35.429Z,5.9
2022-11-28T01:18:35.251Z,16.7
2022-11-28T01:20:35.046Z,7.4
2022-11-28T01:22:34.821Z,13.4
2022-11-28T01:24:34.641Z,7.9
2022-11-28T01:26:34.481Z,3.1
2022-11-28T01:28:37.807Z,11.4
2022-11-28T01:30:37.653Z,18.6
2022-11-28T01:32:37.489Z,24.7
2022-11-28T01:34:37.299Z,8.9
2022-11-28T01:36:37.163Z,9
2022-11-28T01:38:36.966Z,8.9
2022-11-28T01:40:36.812Z,9.3
2022-11-28T01:42:40.115Z,9.9
2022-11-28T01:44:40.188Z,8.4
2022-11-28T01:46:39.765Z,8.5
2022-11-28T01:47:41.310Z,7.8
2022-11-28T01:49:41.129Z,9.8
2022-11-28T01:51:40.865Z,7.1
2022-11-28T01:53:40.721Z,8
2022-11-28T02:01:43.411Z,6.9
2022-11-28T02:03:43.214Z,21.4
2022-11-28T02:05:43.014Z,14.4
2022-11-28T02:07:42.907Z,14
2022-11-28T02:09:46.205Z,8.1
2022-11-28T02:11:46.049Z,8.1
2022-11-28T02:13:45.847Z,15
2022-11-28T02:15:45.589Z,16.2
2022-11-28T02:17:45.303Z,9.9
2022-11-28T02:19:45.066Z,7.6
2022-11-28T02:21:44.821Z,9.9
2022-11-28T02:23:48.138Z,10.9
2022-11-28T02:25:47.969Z,6.6
2022-11-28T02:31:47.234Z,14.5
2022-11-28T02:33:46.925Z,13.9
2022-11-28T02:35:46.737Z,17.2
2022-11-28T02:37:50.096Z,8.3
2022-11-28T02:39:49.937Z,9.1
2022-11-28T02:41:49.758Z,10.5
2022-11-28T02:44:05.377Z,11
2022-11-28T02:46:05.090Z,10.4
2022-11-28T02:48:04.869Z,15.4
2022-11-28T02:50:08.100Z,47.9
2022-11-28T02:52:07.921Z,3.5
2022-11-28T02:54:07.659Z,10.1
2022-11-28T02:56:07.500Z,6.8
2022-11-28T02:58:07.308Z,8.7
2022-11-28T03:00:07.045Z,6.7
2022-11-28T03:02:06.934Z,8
2022-11-28T03:04:10.189Z,9.1
2022-11-28T03:06:09.943Z,4.6
2022-11-28T03:08:09.794Z,6
2022-11-28T03:10:09.615Z,7.5
2022-11-28T03:12:09.337Z,5.5
2022-11-28T03:14:09.170Z,10.6
2022-11-28T03:16:09.008Z,8.5
2022-11-28T03:18:12.228Z,9.2
2022-11-28T03:20:12.046Z,11.1
2022-11-28T03:22:11.885Z,10.8
2022-11-28T03:24:11.579Z,9.7
2022-11-28T03:26:11.338Z,13.2
2022-11-28T03:28:11.155Z,10.5
2022-11-28T03:30:10.895Z,5.2
2022-11-28T03:32:14.181Z,7.7
2022-11-28T03:34:13.850Z,6.9
2022-11-28T03:36:13.668Z,7.1
2022-11-28T03:37:15.410Z,7.9
2022-11-28T03:39:15.135Z,4.9
2022-11-28T03:41:14.896Z,7.2
2022-11-28T03:43:14.628Z,7.9
2022-11-28T03:45:17.723Z,7.2
2022-11-28T03:47:17.495Z,7.2
2022-11-28T03:49:17.265Z,7.8
2022-11-28T03:51:16.994Z,7.7
2022-11-28T03:53:16.748Z,7
2022-11-28T03:55:16.607Z,7.1
2022-11-28T03:57:16.370Z,9.2
2022-11-28T03:59:19.493Z,8.7
2022-11-28T04:01:19.311Z,9
2022-11-28T04:03:19.099Z,8.6
2022-11-28T04:09:18.267Z,8.4
2022-11-28T04:11:17.984Z,6.2
2022-11-28T04:13:21.106Z,7.7
2022-11-28T04:15:20.837Z,6.5
2022-11-28T04:17:20.541Z,5.8
2022-11-28T04:19:20.293Z,10.1
2022-11-28T04:23:19.947Z,8
2022-11-28T04:25:19.673Z,7.8
2022-11-28T04:27:22.806Z,7.3
2022-11-28T04:29:22.514Z,9.2
2022-11-28T04:31:22.448Z,7.8
2022-11-28T04:40:26.482Z,5.3
2022-11-28T04:42:27.846Z,8.1
2022-11-28T04:44:27.544Z,6
2022-11-28T04:46:27.441Z,7.8
2022-11-28T04:48:32.736Z,7.9
2022-11-28T04:50:26.933Z,8.1
2022-11-28T04:52:26.723Z,7.8
2022-11-28T04:54:29.962Z,8.5
2022-11-28T04:56:29.756Z,7
2022-11-28T05:00:29.347Z,6.6
2022-11-28T05:02:29.016Z,10.5
2022-11-28T05:04:28.661Z,6.7
2022-11-28T05:06:28.407Z,6.6
2022-11-28T05:08:31.624Z,6.7
2022-11-28T05:10:31.444Z,3.8
2022-11-28T05:12:31.183Z,8.5
2022-11-28T05:14:30.879Z,8.7
2022-11-28T05:16:30.659Z,15.3
2022-11-28T05:18:30.444Z,5.8
2022-11-28T05:20:30.247Z,5.4
2022-11-28T05:22:33.401Z,8.2
2022-11-28T05:24:33.125Z,5.3
2022-11-28T05:26:32.868Z,7
2022-11-28T05:27:34.382Z,8
2022-11-28T05:31:33.996Z,6.1
2022-11-28T05:33:33.668Z,5.9
2022-11-28T05:35:36.975Z,7.4
2022-11-28T05:37:36.742Z,7.3
2022-11-28T05:39:36.560Z,8.5
2022-11-28T05:41:36.281Z,5
2022-11-28T05:49:38.750Z,7.2
2022-11-28T05:51:38.473Z,6.1
2022-11-28T05:53:38.305Z,7
2022-11-28T05:55:38.022Z,7
2022-11-28T05:57:37.754Z,6.4
2022-11-28T05:59:37.446Z,6.3
2022-11-28T06:01:37.181Z,6.6
2022-11-28T06:03:40.292Z,4.9
2022-11-28T06:05:43.221Z,4.9
2022-11-28T06:07:39.960Z,7.8
2022-11-28T06:09:39.816Z,5.9
2022-11-28T06:11:39.526Z,4.9
2022-11-28T06:13:39.324Z,6.9
2022-11-28T06:15:39.149Z,9
2022-11-28T06:17:42.262Z,7.2
2022-11-28T06:21:41.909Z,6.7
2022-11-28T06:24:01.527Z,6.9
2022-11-28T06:26:01.497Z,6
2022-11-28T06:28:01.112Z,5.4
2022-11-28T06:30:04.359Z,7.5
2022-11-28T06:34:03.934Z,10.7
2022-11-28T06:40:03.173Z,4.8
2022-11-28T06:42:02.895Z,4
2022-11-28T06:44:06.125Z,5.1
2022-11-28T06:50:05.407Z,4.5
2022-11-28T06:54:04.821Z,4.2
2022-11-28T06:56:04.556Z,8.1
2022-11-28T06:58:07.846Z,4.6
2022-11-28T07:00:07.570Z,4.6
2022-11-28T07:02:07.952Z,4.2
2022-11-28T07:04:07.011Z,4.6
2022-11-28T07:06:06.827Z,3.5
2022-11-28T07:08:06.616Z,5.1
2022-11-28T07:10:06.387Z,8.1
2022-11-28T07:12:09.602Z,5.5
2022-11-28T07:14:09.304Z,9.2
2022-11-28T07:16:09.124Z,5.8
2022-11-28T07:19:10.442Z,3.4
2022-11-28T07:21:10.157Z,3.9
2022-11-28T07:25:13.145Z,5.7
2022-11-28T07:29:12.698Z,4
2022-11-28T07:33:12.359Z,4.2
2022-11-28T07:35:12.187Z,4.1
2022-11-28T07:37:11.964Z,5
2022-11-28T07:39:15.168Z,6.7
2022-11-28T07:41:14.891Z,6.9
2022-11-28T07:43:14.617Z,3.9
2022-11-28T07:45:14.353Z,4.6
2022-11-28T07:47:14.081Z,3.9
2022-11-28T07:49:13.796Z,7.7
2022-11-28T07:51:13.517Z,4.7
2022-11-28T07:53:16.838Z,6.7
2022-11-28T07:55:16.566Z,6.2
2022-11-28T07:57:16.349Z,5.7
2022-11-28T07:59:16.099Z,5.4
2022-11-28T08:05:15.380Z,5.5
2022-11-28T08:07:18.505Z,5.7
2022-11-28T08:09:18.204Z,6.7
2022-11-28T08:11:18.083Z,6.9
2022-11-28T08:12:19.595Z,7.1
2022-11-28T08:14:19.451Z,4.8
2022-11-28T08:16:19.264Z,6.1
2022-11-28T08:18:18.997Z,11.3
2022-11-28T08:20:22.185Z,8.6
2022-11-28T08:22:21.930Z,6.1
2022-11-28T08:24:21.718Z,5.9
2022-11-28T08:26:23.061Z,11.7
2022-11-28T08:32:20.889Z,11.4
2022-11-28T08:40:23.495Z,4.1
2022-11-28T08:42:23.210Z,8.7
2022-11-28T08:44:22.950Z,9.9
2022-11-28T08:46:22.875Z,10
2022-11-28T08:48:25.980Z,9.9
2022-11-28T08:52:25.516Z,6
2022-11-28T08:54:25.240Z,10.9
2022-11-28T08:56:24.981Z,11.6
2022-11-28T08:58:24.710Z,9.8
2022-11-28T09:00:24.522Z,10.3
2022-11-28T09:02:27.646Z,9.7
2022-11-28T09:04:27.353Z,8
2022-11-28T09:06:27.095Z,9.6
2022-11-28T09:07:28.747Z,22.9
2022-11-28T09:09:32.572Z,7.4
2022-11-28T09:11:28.301Z,10.8
2022-11-28T09:13:28.126Z,7.9
2022-11-28T09:15:31.315Z,17.8
2022-11-28T09:17:31.051Z,7.8
2022-11-28T09:19:30.734Z,11.3
2022-11-28T09:21:30.482Z,7.6
2022-11-28T09:23:30.307Z,8.1
2022-11-28T09:25:30.249Z,9.3
2022-11-28T09:27:29.845Z,6.6
2022-11-28T09:31:32.912Z,9.6
2022-11-28T09:33:32.515Z,11.7
2022-11-28T09:35:32.237Z,8.6
2022-11-28T09:37:32.044Z,8.5
2022-11-28T09:41:31.677Z,7.3
2022-11-28T09:43:34.779Z,7.4
2022-11-28T09:45:34.517Z,9
2022-11-28T09:51:33.677Z,6.6
2022-11-28T09:53:33.421Z,7.2
2022-11-28T10:01:35.855Z,8
2022-11-28T10:03:58.024Z,9.5
2022-11-28T10:05:57.558Z,5.3
2022-11-28T10:07:57.343Z,7.2
2022-11-28T10:10:01.130Z,9.5
2022-11-28T10:12:00.900Z,5.4
2022-11-28T10:14:08.303Z,6
2022-11-28T10:16:00.346Z,10.1
2022-11-28T10:19:59.924Z,11.1
2022-11-28T10:21:59.668Z,7.6
2022-11-28T10:24:02.817Z,6.6
2022-11-28T10:26:02.534Z,7.1
2022-11-28T10:28:03.780Z,4.3
2022-11-28T10:30:03.540Z,6.2
2022-11-28T10:32:03.247Z,9.2
2022-11-28T10:34:02.993Z,7.2
2022-11-28T10:36:02.727Z,7.1
2022-11-28T10:38:05.839Z,9
2022-11-28T10:40:05.619Z,6.5
2022-11-28T10:44:05.032Z,7.1
2022-11-28T10:46:04.819Z,4.4
2022-11-28T10:48:37.308Z,4.4
2022-11-28T10:50:04.174Z,9.2
2022-11-28T10:52:07.302Z,7.6
2022-11-28T10:54:07.026Z,10
2022-11-28T10:56:11.258Z,8
2022-11-28T10:59:08.104Z,14.8
2022-11-28T11:01:07.863Z,13.7
2022-11-28T11:03:07.506Z,5.8
2022-11-28T11:05:10.631Z,6.8
2022-11-28T11:07:14.795Z,5.3
2022-11-28T11:09:10.056Z,4.4
2022-11-28T11:11:09.748Z,5.6
2022-11-28T11:13:09.482Z,4.2
2022-11-28T11:15:09.191Z,10.4
2022-11-28T11:17:08.899Z,6.9
2022-11-28T11:19:12.065Z,9.6
2022-11-28T11:21:11.731Z,8.1
2022-11-28T11:27:10.868Z,7
2022-11-28T11:29:10.580Z,7.4
2022-11-28T11:31:10.335Z,6.1
2022-11-28T11:37:12.829Z,8.2
2022-11-28T11:39:12.531Z,8.9
2022-11-28T11:41:12.195Z,11.6
2022-11-28T11:43:11.890Z,16.4
2022-11-28T11:45:11.617Z,8.3
2022-11-28T11:47:14.693Z,14.1
2022-11-28T11:49:14.426Z,18.1
2022-11-28T11:51:14.117Z,10
2022-11-28T11:52:15.642Z,15
2022-11-28T11:54:15.340Z,13.2
2022-11-28T11:56:15.051Z,15.5
2022-11-28T11:58:14.784Z,12.5
2022-11-28T12:00:17.859Z,16.3
2022-11-28T12:02:17.603Z,12.5
2022-11-28T12:04:43.142Z,11.7
2022-11-28T12:06:16.966Z,12.1
2022-11-28T12:08:16.665Z,15.2
2022-11-28T12:10:16.389Z,13.3
2022-11-28T12:12:16.119Z,14.4
2022-11-28T12:14:19.217Z,17.4
2022-11-28T12:16:19.000Z,16.8
2022-11-28T12:18:18.594Z,16.1
2022-11-28T12:20:18.326Z,18.3
2022-11-28T12:24:17.770Z,18.8
2022-11-28T12:26:17.444Z,14.2
2022-11-28T12:28:20.558Z,18
2022-11-28T12:30:20.319Z,18
2022-11-28T12:32:20.043Z,20.6
2022-11-28T12:34:19.757Z,18.1
2022-11-28T12:36:19.444Z,17.4
2022-11-28T12:38:19.176Z,17.1
2022-11-28T12:40:18.857Z,22.7
2022-11-28T12:42:21.998Z,22.7
2022-11-28T12:44:21.683Z,20.4
2022-11-28T12:46:21.412Z,20.6
2022-11-28T12:49:22.644Z,21
2022-11-28T12:51:22.332Z,19.1
2022-11-28T12:55:25.131Z,22.6
2022-11-28T13:01:24.414Z,24.7
2022-11-28T13:03:24.003Z,18.6
2022-11-28T13:05:23.651Z,19.1
2022-11-28T13:07:23.391Z,20.4
2022-11-28T13:09:26.472Z,30.6
2022-11-28T13:11:26.166Z,25.1
2022-11-28T13:29:26.961Z,20.8
2022-11-28T13:31:26.741Z,40.6
2022-11-28T13:33:26.363Z,26.6
2022-11-28T13:35:26.078Z,18.9
2022-11-28T13:39:29.128Z,35.2
2022-11-28T13:42:03.517Z,28
2022-11-28T13:43:50.565Z,30.2
2022-11-28T13:45:50.266Z,18.2
2022-11-28T13:47:49.974Z,19.1
2022-11-28T13:49:53.033Z,14.5
2022-11-28T13:51:52.743Z,21.9
2022-11-28T13:53:52.460Z,18.5
2022-11-28T13:55:52.203Z,17.9
2022-11-28T13:57:51.883Z,23.1
2022-11-28T13:59:51.611Z,17.8
2022-11-28T14:01:51.343Z,25.6
2022-11-28T14:03:54.382Z,20.4
2022-11-28T14:05:54.139Z,19.4
2022-11-28T14:07:55.783Z,17
2022-11-28T14:09:53.463Z,15.8
2022-11-28T14:11:53.182Z,27.6
2022-11-28T14:13:52.874Z,18.5
2022-11-28T14:15:52.610Z,14.3
2022-11-28T14:17:55.689Z,19.5
2022-11-28T14:23:54.785Z,25.1
2022-11-28T14:25:54.473Z,19.2
2022-11-28T14:27:54.208Z,22.3
2022-11-28T14:29:53.936Z,16.2
2022-11-28T14:32:27.937Z,18.8
2022-11-28T14:33:56.689Z,20.3
2022-11-28T14:35:56.406Z,21.8
2022-11-28T14:36:57.966Z,17.8
2022-11-28T14:40:57.374Z,20.4
2022-11-28T14:43:00.547Z,18.5
2022-11-28T14:46:59.914Z,21.1
2022-11-28T14:48:59.749Z,25
2022-11-28T14:52:58.992Z,16.7
2022-11-28T14:54:58.668Z,14.8
2022-11-28T14:57:00.147Z,22
2022-11-28T14:59:02.163Z,20.1
2022-11-28T15:01:01.174Z,20.9
2022-11-28T15:03:00.999Z,23
2022-11-28T15:07:00.277Z,25.7
2022-11-28T15:08:59.987Z,26.3
2022-11-28T15:10:59.695Z,31.6
2022-11-28T15:13:02.796Z,31
2022-11-28T15:19:02.024Z,23.8
2022-11-28T15:21:01.712Z,25.3
2022-11-28T15:23:01.383Z,26.3
2022-11-28T15:25:01.104Z,25.2
2022-11-28T15:27:04.217Z,29.7
2022-11-28T15:29:03.912Z,27.2
2022-11-28T15:31:03.693Z,28.2
2022-11-28T15:32:05.168Z,35.3
2022-11-28T15:34:04.877Z,36.5
2022-11-28T15:36:04.617Z,31.3
2022-11-28T15:38:04.261Z,38.4
2022-11-28T15:40:07.406Z,33.4
2022-11-28T15:42:07.087Z,48.6
2022-11-28T15:44:06.824Z,29.6
2022-11-28T15:46:06.507Z,43.4
2022-11-28T15:48:06.236Z,31.8
2022-11-28T15:50:05.930Z,38.6
2022-11-28T15:52:05.657Z,34.7
2022-11-28T15:54:14.684Z,38.8
2022-11-28T15:56:08.441Z,37.3
2022-11-28T15:58:08.106Z,33.6
2022-11-28T16:00:07.804Z,37.6
2022-11-28T16:02:07.528Z,30.3
2022-11-28T16:04:07.221Z,36.5
2022-11-28T16:06:06.889Z,32.7
2022-11-28T16:08:13.506Z,41.9
2022-11-28T16:10:09.668Z,41.4
2022-11-28T16:12:09.355Z,43.1
2022-11-28T16:14:10.619Z,43.2
2022-11-28T16:16:10.377Z,30.8
2022-11-28T16:19:46.647Z,33.7
2022-11-28T16:20:09.618Z,39.4
2022-11-28T16:22:12.686Z,38.6
2022-11-28T16:24:12.354Z,36.5
2022-11-28T16:26:12.062Z,32.8
2022-11-28T16:29:13.249Z,31.4
2022-11-28T16:35:15.664Z,39.5
2022-11-28T16:37:15.349Z,43.1
2022-11-28T16:39:15.041Z,34.5
2022-11-28T16:41:14.724Z,35
2022-11-28T16:43:14.390Z,54.5
2022-11-28T16:45:14.075Z,56.1
2022-11-28T16:47:13.782Z,41
2022-11-28T16:49:16.856Z,40.3
2022-11-28T16:51:16.541Z,40.2
2022-11-28T16:53:16.217Z,48.3
2022-11-28T16:55:15.880Z,37.7
2022-11-28T16:57:15.555Z,43.8
2022-11-28T16:59:15.252Z,39.7
2022-11-28T17:01:14.984Z,37.9
2022-11-28T17:07:17.421Z,59.1
2022-11-28T17:11:16.742Z,35.5
2022-11-28T17:13:16.447Z,50.4
2022-11-28T17:15:16.144Z,50
2022-11-28T17:17:19.229Z,49.7
2022-11-28T17:19:18.916Z,40.7
2022-11-28T17:21:18.592Z,50.6
2022-11-28T17:27:39.360Z,52.8
2022-11-28T17:29:42.944Z,51.8
2022-11-28T17:31:42.259Z,52.8
2022-11-28T17:33:44.707Z,55.2
2022-11-28T17:35:41.551Z,43.7
2022-11-28T17:37:42.536Z,53.3
2022-11-28T17:39:40.924Z,70.2
2022-11-28T17:41:40.609Z,60.1
2022-11-28T17:43:43.698Z,50
2022-11-28T17:45:43.397Z,54.8
2022-11-28T17:47:43.067Z,44.7
2022-11-28T17:51:42.454Z,63.4
2022-11-28T17:53:42.852Z,56.8
2022-11-28T17:55:41.844Z,48.9
2022-11-28T17:57:44.934Z,55.9
2022-11-28T18:07:43.431Z,61.9
2022-11-28T18:12:30.242Z,61.2
2022-11-28T18:13:45.859Z,58.5
2022-11-28T18:15:45.552Z,59.2
2022-11-28T18:16:47.181Z,68.8
2022-11-28T18:18:46.760Z,54.1
2022-11-28T18:20:46.456Z,60.7
2022-11-28T18:22:46.125Z,58.7
2022-11-28T18:26:48.927Z,56.3
2022-11-28T18:28:48.574Z,71.4
2022-11-28T18:30:48.310Z,72
2022-11-28T18:34:47.688Z,71.9
2022-11-28T18:36:47.372Z,64.3
2022-11-28T18:38:50.463Z,72.2
2022-11-28T18:40:50.316Z,70.5
2022-11-28T18:42:49.824Z,73.3
2022-11-28T18:44:49.571Z,76.2
2022-11-28T18:46:49.236Z,89.2
2022-11-28T18:48:48.908Z,69.2
2022-11-28T18:50:48.752Z,69.2
2022-11-28T18:52:51.713Z,97
2022-11-28T18:54:51.427Z,75
2022-11-28T18:56:51.087Z,73
2022-11-28T18:58:50.773Z,105.5
2022-11-28T19:00:50.683Z,83.2
2022-11-28T19:02:50.137Z,83.4
2022-11-28T19:04:49.857Z,83
2022-11-28T19:06:52.912Z,92.1
2022-11-28T19:08:52.601Z,73
2022-11-28T19:11:53.822Z,70.3
2022-11-28T19:13:53.661Z,94.3
2022-11-28T19:15:53.193Z,62.1
2022-11-28T19:17:52.903Z,65.4
2022-11-28T19:19:55.971Z,66.7
2022-11-28T19:21:55.690Z,61.8
2022-11-28T19:23:55.374Z,57.6
2022-11-28T19:25:55.070Z,66.1
2022-11-28T19:27:54.761Z,70.9
2022-11-28T19:29:54.477Z,70.8
2022-11-28T19:31:54.230Z,69.6
2022-11-28T19:34:00.819Z,67.8
2022-11-28T19:35:57.060Z,72.2
2022-11-28T19:37:56.781Z,63.8
2022-11-28T19:40:02.204Z,52.3
2022-11-28T19:41:59.757Z,54
2022-11-28T19:43:56.058Z,74.5
2022-11-28T19:45:55.952Z,58.4
2022-11-28T19:47:58.848Z,64.7
2022-11-28T19:49:58.577Z,67.2
2022-11-28T19:51:58.281Z,69
2022-11-28T19:54:02.851Z,69.4
2022-11-28T19:55:57.705Z,62.2
2022-11-28T19:57:57.424Z,68.6
2022-11-28T19:59:57.168Z,77.2
2022-11-28T20:02:00.398Z,81.7
2022-11-28T20:04:00.185Z,72.2
2022-11-28T20:05:59.966Z,63.2
2022-11-28T20:07:01.592Z,71
2022-11-28T20:09:01.329Z,53.4
2022-11-28T20:17:03.644Z,77.5
2022-11-28T20:19:03.461Z,71.1
2022-11-28T20:21:03.276Z,60.9
2022-11-28T20:29:05.846Z,73.3
2022-11-28T20:37:05.018Z,102.6
2022-11-28T20:39:04.841Z,86.6
2022-11-28T20:43:07.882Z,109.2
2022-11-28T20:45:07.684Z,102.6
2022-11-28T20:47:07.433Z,121.7
2022-11-28T20:49:07.237Z,105.8
2022-11-28T20:51:06.976Z,77
2022-11-28T20:53:06.754Z,97.8
2022-11-28T20:55:06.478Z,123.6
2022-11-28T20:57:22.286Z,121.9
2022-11-28T20:59:09.404Z,116
2022-11-28T21:01:09.197Z,95.8
2022-11-28T21:03:30.656Z,105.8
2022-11-28T21:05:30.497Z,138.1
2022-11-28T21:07:30.122Z,105.6
2022-11-28T21:09:33.170Z,115.5
2022-11-28T21:11:56.822Z,81.5
2022-11-28T21:13:32.601Z,97.4
2022-11-28T21:15:32.419Z,83
2022-11-28T21:17:32.117Z,112.4
2022-11-28T21:19:31.845Z,102.4
2022-11-28T21:21:31.545Z,104.2
2022-11-28T21:25:34.439Z,114.7
2022-11-28T21:33:33.459Z,92
2022-11-28T21:37:36.269Z,101.9
2022-11-28T21:39:35.965Z,103
2022-11-28T21:41:35.668Z,102.9
2022-11-28T21:43:35.397Z,80.9
2022-11-28T21:45:35.121Z,76.8
2022-11-28T21:47:34.803Z,98.7
2022-11-28T21:49:34.507Z,93.9
2022-11-28T21:51:37.625Z,113.3
2022-11-28T21:53:37.310Z,71.5
2022-11-28T21:55:37.022Z,83.6
2022-11-28T21:56:38.568Z,113.9
2022-11-28T21:58:39.847Z,74.2
2022-11-28T22:00:53.322Z,64.2
2022-11-28T22:06:42.146Z,68.2
2022-11-28T22:08:41.835Z,81.2
2022-11-28T22:10:41.521Z,59.6
2022-11-28T22:12:41.258Z,69.9
2022-11-28T22:20:45.731Z,79.5
2022-11-28T22:26:42.702Z,41.9
2022-11-28T22:28:42.402Z,63.3
2022-11-28T22:30:42.086Z,85.2
2022-11-28T22:34:45.545Z,70.4
2022-11-28T22:36:44.813Z,74.6
2022-11-28T22:38:44.566Z,74.5
2022-11-28T22:40:44.345Z,78.2
2022-11-28T22:42:44.086Z,67.6
2022-11-28T22:44:44.201Z,78.4
2022-11-28T22:46:46.969Z,65.6
2022-11-28T22:48:46.675Z,74.5
2022-11-28T22:51:48.010Z,65.4
2022-11-28T22:53:47.715Z,59.6
2022-11-28T22:55:47.417Z,84.7
2022-11-28T22:57:47.195Z,69.1
2022-11-28T22:59:50.328Z,62.4
2022-11-28T23:01:50.154Z,60.8
2022-11-28T23:03:49.748Z,70.9
2022-11-28T23:05:49.541Z,51.3
2022-11-28T23:07:49.202Z,69.1
2022-11-28T23:09:48.867Z,58.1
2022-11-28T23:11:48.675Z,76.3
2022-11-28T23:13:51.883Z,94.8
2022-11-28T23:17:51.272Z,74.1
2022-11-28T23:19:51.002Z,63.5
2022-11-28T23:21:50.826Z,60.1
2022-11-28T23:23:50.659Z,50.8
2022-11-28T23:25:50.438Z,71
2022-11-28T23:27:53.561Z,80.1
2022-11-28T23:29:53.283Z,78.3
2022-11-28T23:31:53.143Z,72
2022-11-28T23:33:52.767Z,86
2022-11-28T23:35:52.476Z,62.4
2022-11-28T23:37:52.248Z,61.7
2022-11-28T23:39:51.954Z,64.7
2022-11-28T23:41:55.098Z,67.2
2022-11-28T23:43:54.816Z,106.3
2022-11-28T23:45:54.670Z,56.9
2022-11-28T23:46:56.176Z,77.9
2022-11-28T23:52:55.422Z,75.8
2022-11-28T23:54:58.614Z,65.9
2022-11-28T23:56:58.402Z,53.3
2022-11-28T23:58:58.210Z,43.1
